sensor_id;sensor_type;location;lat;lon;timestamp;P1;durP1;ratioP1;P2;durP2;ratioP2
69323;SDS011;56470;47.350;8.718;2023-06-22T07:07:12;12.73;;;5.80;;
69323;SDS011;56470;47.350;8.718;2023-06-22T07:09:37;10.98;;;4.85;;
69323;SDS011;56470;47.350;8.718;2023-06-22T07:12:02;13.90;;;5.63;;
69323;SDS011;56470;47.350;8.718;2023-06-22T07:14:28;10.87;;;5.20;;
69323;SDS011;56470;47.350;8.718;2023-06-22T07:16:53;10.73;;;5.17;;
69323;SDS011;56470;47.350;8.718;2023-06-22T07:19:24;12.87;;;5.67;;
69323;SDS011;56470;47.350;8.718;2023-06-22T07:21:50;9.88;;;4.47;;
69323;SDS011;56470;47.350;8.718;2023-06-22T07:24:16;8.80;;;4.47;;
69323;SDS011;56470;47.350;8.718;2023-06-22T07:26:41;9.00;;;4.67;;
69323;SDS011;56470;47.350;8.718;2023-06-22T07:29:10;9.38;;;4.38;;
69323;SDS011;56470;47.350;8.718;2023-06-22T07:31:35;7.27;;;3.20;;
69323;SDS011;56470;47.350;8.718;2023-06-22T07:34:01;7.97;;;4.33;;
69323;SDS011;56470;47.350;8.718;2023-06-22T07:36:27;9.80;;;4.22;;
69323;SDS011;56470;47.350;8.718;2023-06-22T07:38:55;12.35;;;5.28;;
69323;SDS011;56470;47.350;8.718;2023-06-22T07:41:20;9.10;;;4.90;;
69323;SDS011;56470;47.350;8.718;2023-06-22T07:43:45;9.97;;;3.80;;
69323;SDS011;56470;47.350;8.718;2023-06-22T07:46:11;7.67;;;3.87;;
69323;SDS011;56470;47.350;8.718;2023-06-22T07:48:36;6.68;;;3.40;;
69323;SDS011;56470;47.350;8.718;2023-06-22T07:51:02;13.27;;;4.40;;
69323;SDS011;56470;47.350;8.718;2023-06-22T07:53:28;11.50;;;4.70;;
69323;SDS011;56470;47.350;8.718;2023-06-22T07:55:53;12.00;;;4.38;;
69323;SDS011;56470;47.350;8.718;2023-06-22T07:58:18;9.33;;;4.40;;
69323;SDS011;56470;47.350;8.718;2023-06-22T08:00:45;11.47;;;4.73;;
69323;SDS011;56470;47.350;8.718;2023-06-22T08:03:10;11.40;;;4.13;;
69323;SDS011;56470;47.350;8.718;2023-06-22T08:05:36;9.20;;;4.70;;
69323;SDS011;56470;47.350;8.718;2023-06-22T08:08:01;11.50;;;5.60;;
69323;SDS011;56470;47.350;8.718;2023-06-22T08:10:26;11.23;;;4.40;;
69323;SDS011;56470;47.350;8.718;2023-06-22T08:12:52;10.00;;;4.53;;
69323;SDS011;56470;47.350;8.718;2023-06-22T08:15:18;9.13;;;5.37;;
69323;SDS011;56470;47.350;8.718;2023-06-22T08:17:43;11.83;;;4.40;;
69323;SDS011;56470;47.350;8.718;2023-06-22T08:20:10;14.00;;;5.07;;
69323;SDS011;56470;47.350;8.718;2023-06-22T08:25:18;10.88;;;4.95;;
69323;SDS011;56470;47.350;8.718;2023-06-22T08:30:21;14.15;;;5.40;;
69323;SDS011;56470;47.350;8.718;2023-06-22T08:32:47;9.27;;;4.80;;
69323;SDS011;56470;47.350;8.718;2023-06-22T08:35:12;13.13;;;5.33;;
69323;SDS011;56470;47.350;8.718;2023-06-22T08:37:37;10.27;;;4.63;;
69323;SDS011;56470;47.350;8.718;2023-06-22T08:40:04;11.63;;;5.33;;
69323;SDS011;56470;47.350;8.718;2023-06-22T08:42:33;11.30;;;5.50;;
69323;SDS011;56470;47.350;8.718;2023-06-22T08:44:59;16.58;;;6.18;;
69323;SDS011;56470;47.350;8.718;2023-06-22T08:47:24;15.73;;;5.77;;
69323;SDS011;56470;47.350;8.718;2023-06-22T08:49:50;11.93;;;4.60;;
69323;SDS011;56470;47.350;8.718;2023-06-22T08:52:15;11.63;;;4.70;;
69323;SDS011;56470;47.350;8.718;2023-06-22T08:54:42;12.38;;;5.18;;
69323;SDS011;56470;47.350;8.718;2023-06-22T08:57:08;13.33;;;5.73;;
69323;SDS011;56470;47.350;8.718;2023-06-22T08:59:33;13.27;;;5.63;;
69323;SDS011;56470;47.350;8.718;2023-06-22T09:01:58;10.57;;;4.57;;
69323;SDS011;56470;47.350;8.718;2023-06-22T09:04:24;12.18;;;5.60;;
69323;SDS011;56470;47.350;8.718;2023-06-22T09:06:49;12.07;;;5.70;;
69323;SDS011;56470;47.350;8.718;2023-06-22T09:09:15;11.55;;;5.25;;
69323;SDS011;56470;47.350;8.718;2023-06-22T09:11:41;10.77;;;5.53;;
69323;SDS011;56470;47.350;8.718;2023-06-22T09:14:07;12.32;;;4.57;;
69323;SDS011;56470;47.350;8.718;2023-06-22T09:16:33;9.63;;;5.70;;
69323;SDS011;56470;47.350;8.718;2023-06-22T09:18:59;11.07;;;4.65;;
69323;SDS011;56470;47.350;8.718;2023-06-22T09:21:24;12.83;;;5.13;;
69323;SDS011;56470;47.350;8.718;2023-06-22T09:23:49;10.90;;;4.72;;
69323;SDS011;56470;47.350;8.718;2023-06-22T09:26:18;11.00;;;4.70;;
69323;SDS011;56470;47.350;8.718;2023-06-22T09:28:44;9.18;;;4.95;;
69323;SDS011;56470;47.350;8.718;2023-06-22T09:31:09;10.87;;;5.43;;
69323;SDS011;56470;47.350;8.718;2023-06-22T09:33:37;12.85;;;4.70;;
69323;SDS011;56470;47.350;8.718;2023-06-22T09:36:04;15.43;;;5.53;;
69323;SDS011;56470;47.350;8.718;2023-06-22T09:38:32;11.00;;;5.15;;
69323;SDS011;56470;47.350;8.718;2023-06-22T09:40:59;9.65;;;4.43;;
69323;SDS011;56470;47.350;8.718;2023-06-22T09:43:25;8.47;;;4.47;;
69323;SDS011;56470;47.350;8.718;2023-06-22T09:45:50;10.17;;;5.27;;
69323;SDS011;56470;47.350;8.718;2023-06-22T09:48:15;11.93;;;5.03;;
69323;SDS011;56470;47.350;8.718;2023-06-22T09:50:41;11.70;;;3.90;;
69323;SDS011;56470;47.350;8.718;2023-06-22T09:53:06;10.30;;;4.83;;
69323;SDS011;56470;47.350;8.718;2023-06-22T09:55:31;9.17;;;4.20;;
69323;SDS011;56470;47.350;8.718;2023-06-22T09:57:57;12.77;;;5.37;;
69323;SDS011;56470;47.350;8.718;2023-06-22T10:00:22;12.13;;;5.07;;
69323;SDS011;56470;47.350;8.718;2023-06-22T10:02:47;10.23;;;3.80;;
69323;SDS011;56470;47.350;8.718;2023-06-22T10:05:13;10.17;;;4.13;;
69323;SDS011;56470;47.350;8.718;2023-06-22T10:07:38;11.10;;;4.18;;
69323;SDS011;56470;47.350;8.718;2023-06-22T10:10:07;8.77;;;3.63;;
69323;SDS011;56470;47.350;8.718;2023-06-22T10:12:33;10.82;;;4.47;;
69323;SDS011;56470;47.350;8.718;2023-06-22T10:14:58;11.90;;;4.32;;
69323;SDS011;56470;47.350;8.718;2023-06-22T10:17:24;10.43;;;4.50;;
69323;SDS011;56470;47.350;8.718;2023-06-22T10:19:49;10.43;;;4.27;;
69323;SDS011;56470;47.350;8.718;2023-06-22T10:22:14;9.20;;;4.23;;
69323;SDS011;56470;47.350;8.718;2023-06-22T10:24:39;8.27;;;4.43;;
69323;SDS011;56470;47.350;8.718;2023-06-22T10:27:09;7.90;;;4.03;;
69323;SDS011;56470;47.350;8.718;2023-06-22T10:29:38;10.07;;;4.28;;
69323;SDS011;56470;47.350;8.718;2023-06-22T10:32:04;14.43;;;5.33;;
69323;SDS011;56470;47.350;8.718;2023-06-22T10:34:29;11.40;;;4.78;;
69323;SDS011;56470;47.350;8.718;2023-06-22T10:36:54;8.83;;;3.90;;
69323;SDS011;56470;47.350;8.718;2023-06-22T10:39:20;9.00;;;4.53;;
69323;SDS011;56470;47.350;8.718;2023-06-22T10:41:45;11.77;;;5.00;;
69323;SDS011;56470;47.350;8.718;2023-06-22T10:44:12;9.70;;;4.80;;
69323;SDS011;56470;47.350;8.718;2023-06-22T10:46:37;8.77;;;4.43;;
69323;SDS011;56470;47.350;8.718;2023-06-22T10:49:03;11.30;;;4.93;;
69323;SDS011;56470;47.350;8.718;2023-06-22T10:51:28;10.10;;;4.90;;
69323;SDS011;56470;47.350;8.718;2023-06-22T10:53:53;12.60;;;5.97;;
69323;SDS011;56470;47.350;8.718;2023-06-22T10:56:19;13.07;;;5.07;;
69323;SDS011;56470;47.350;8.718;2023-06-22T10:58:44;8.50;;;5.23;;
69323;SDS011;56470;47.350;8.718;2023-06-22T11:01:10;14.80;;;5.15;;
69323;SDS011;56470;47.350;8.718;2023-06-22T11:03:36;8.52;;;3.63;;
69323;SDS011;56470;47.350;8.718;2023-06-22T11:06:01;8.13;;;5.17;;
69323;SDS011;56470;47.350;8.718;2023-06-22T11:08:27;11.93;;;4.97;;
69323;SDS011;56470;47.350;8.718;2023-06-22T11:10:52;9.33;;;3.97;;
69323;SDS011;56470;47.350;8.718;2023-06-22T11:13:17;11.23;;;4.57;;
69323;SDS011;56470;47.350;8.718;2023-06-22T11:15:43;8.82;;;3.78;;
69323;SDS011;56470;47.350;8.718;2023-06-22T11:18:08;14.47;;;5.03;;
69323;SDS011;56470;47.350;8.718;2023-06-22T11:20:33;11.20;;;4.87;;
69323;SDS011;56470;47.350;8.718;2023-06-22T11:23:03;9.68;;;4.35;;
69323;SDS011;56470;47.350;8.718;2023-06-22T11:25:32;9.60;;;4.43;;
69323;SDS011;56470;47.350;8.718;2023-06-22T11:28:00;10.75;;;4.35;;
69323;SDS011;56470;47.350;8.718;2023-06-22T11:30:29;10.18;;;4.40;;
69323;SDS011;56470;47.350;8.718;2023-06-22T11:32:56;10.38;;;4.45;;
69323;SDS011;56470;47.350;8.718;2023-06-22T11:35:23;11.02;;;4.75;;
69323;SDS011;56470;47.350;8.718;2023-06-22T11:37:49;8.43;;;4.10;;
69323;SDS011;56470;47.350;8.718;2023-06-22T11:40:14;10.97;;;4.43;;
69323;SDS011;56470;47.350;8.718;2023-06-22T11:42:39;10.43;;;4.80;;
69323;SDS011;56470;47.350;8.718;2023-06-22T11:45:05;11.30;;;4.43;;
69323;SDS011;56470;47.350;8.718;2023-06-22T11:47:31;8.18;;;4.47;;
69323;SDS011;56470;47.350;8.718;2023-06-22T11:49:57;9.87;;;4.50;;
69323;SDS011;56470;47.350;8.718;2023-06-22T11:52:22;13.27;;;4.67;;
69323;SDS011;56470;47.350;8.718;2023-06-22T11:54:47;10.37;;;4.67;;
69323;SDS011;56470;47.350;8.718;2023-06-22T11:57:12;10.48;;;4.47;;
69323;SDS011;56470;47.350;8.718;2023-06-22T11:59:38;10.23;;;5.00;;
69323;SDS011;56470;47.350;8.718;2023-06-22T12:02:03;10.77;;;5.13;;
69323;SDS011;56470;47.350;8.718;2023-06-22T12:04:30;10.63;;;4.78;;
69323;SDS011;56470;47.350;8.718;2023-06-22T12:06:55;8.97;;;4.07;;
69323;SDS011;56470;47.350;8.718;2023-06-22T12:09:21;13.80;;;5.17;;
69323;SDS011;56470;47.350;8.718;2023-06-22T12:11:46;11.40;;;5.13;;
69323;SDS011;56470;47.350;8.718;2023-06-22T12:14:11;14.13;;;4.70;;
69323;SDS011;56470;47.350;8.718;2023-06-22T12:16:36;11.73;;;4.83;;
69323;SDS011;56470;47.350;8.718;2023-06-22T12:19:02;10.23;;;5.13;;
69323;SDS011;56470;47.350;8.718;2023-06-22T12:21:27;12.23;;;5.23;;
69323;SDS011;56470;47.350;8.718;2023-06-22T12:23:53;12.80;;;4.97;;
69323;SDS011;56470;47.350;8.718;2023-06-22T12:26:19;10.00;;;5.47;;
69323;SDS011;56470;47.350;8.718;2023-06-22T12:28:44;12.30;;;4.70;;
69323;SDS011;56470;47.350;8.718;2023-06-22T12:31:09;12.23;;;5.40;;
69323;SDS011;56470;47.350;8.718;2023-06-22T12:33:35;11.07;;;4.40;;
69323;SDS011;56470;47.350;8.718;2023-06-22T12:36:00;9.60;;;4.53;;
69323;SDS011;56470;47.350;8.718;2023-06-22T12:38:25;16.27;;;4.72;;
69323;SDS011;56470;47.350;8.718;2023-06-22T12:40:51;9.10;;;5.03;;
69323;SDS011;56470;47.350;8.718;2023-06-22T12:43:17;8.40;;;4.68;;
69323;SDS011;56470;47.350;8.718;2023-06-22T12:45:42;10.67;;;4.73;;
69323;SDS011;56470;47.350;8.718;2023-06-22T12:48:08;8.20;;;3.97;;
69323;SDS011;56470;47.350;8.718;2023-06-22T12:50:33;9.77;;;4.17;;
69323;SDS011;56470;47.350;8.718;2023-06-22T12:52:59;9.02;;;4.35;;
69323;SDS011;56470;47.350;8.718;2023-06-22T12:55:25;10.87;;;5.17;;
69323;SDS011;56470;47.350;8.718;2023-06-22T12:57:50;8.68;;;4.30;;
69323;SDS011;56470;47.350;8.718;2023-06-22T13:00:15;12.43;;;4.47;;
69323;SDS011;56470;47.350;8.718;2023-06-22T13:02:41;11.93;;;3.70;;
69323;SDS011;56470;47.350;8.718;2023-06-22T13:05:07;11.38;;;4.25;;
69323;SDS011;56470;47.350;8.718;2023-06-22T13:07:33;10.30;;;4.57;;
69323;SDS011;56470;47.350;8.718;2023-06-22T13:09:59;12.33;;;4.33;;
69323;SDS011;56470;47.350;8.718;2023-06-22T13:12:24;9.80;;;4.25;;
69323;SDS011;56470;47.350;8.718;2023-06-22T13:14:49;8.37;;;4.23;;
69323;SDS011;56470;47.350;8.718;2023-06-22T13:17:15;8.07;;;3.70;;
69323;SDS011;56470;47.350;8.718;2023-06-22T13:19:40;9.67;;;4.50;;
69323;SDS011;56470;47.350;8.718;2023-06-22T13:22:09;11.70;;;4.03;;
69323;SDS011;56470;47.350;8.718;2023-06-22T13:25:05;7.90;;;3.05;;
69323;SDS011;56470;47.350;8.718;2023-06-22T13:27:31;9.07;;;3.83;;
69323;SDS011;56470;47.350;8.718;2023-06-22T13:29:56;11.20;;;3.80;;
69323;SDS011;56470;47.350;8.718;2023-06-22T13:32:22;15.00;;;3.60;;
69323;SDS011;56470;47.350;8.718;2023-06-22T13:34:47;7.97;;;2.77;;
69323;SDS011;56470;47.350;8.718;2023-06-22T13:37:13;11.83;;;3.73;;
69323;SDS011;56470;47.350;8.718;2023-06-22T13:39:38;8.57;;;3.80;;
69323;SDS011;56470;47.350;8.718;2023-06-22T13:42:03;7.03;;;3.57;;
69323;SDS011;56470;47.350;8.718;2023-06-22T13:44:29;9.63;;;2.58;;
69323;SDS011;56470;47.350;8.718;2023-06-22T13:47:01;7.70;;;2.70;;
69323;SDS011;56470;47.350;8.718;2023-06-22T13:49:28;6.70;;;2.30;;
69323;SDS011;56470;47.350;8.718;2023-06-22T13:51:56;6.87;;;2.43;;
69323;SDS011;56470;47.350;8.718;2023-06-22T13:58:15;7.95;;;2.97;;
69323;SDS011;56470;47.350;8.718;2023-06-22T14:01:09;7.05;;;2.70;;
69323;SDS011;56470;47.350;8.718;2023-06-22T14:03:35;7.88;;;2.47;;
69323;SDS011;56470;47.350;8.718;2023-06-22T14:06:01;8.17;;;2.50;;
69323;SDS011;56470;47.350;8.718;2023-06-22T14:08:26;6.57;;;2.53;;
69323;SDS011;56470;47.350;8.718;2023-06-22T14:10:51;6.73;;;2.30;;
69323;SDS011;56470;47.350;8.718;2023-06-22T14:13:18;7.32;;;2.70;;
69323;SDS011;56470;47.350;8.718;2023-06-22T14:15:43;5.23;;;1.93;;
69323;SDS011;56470;47.350;8.718;2023-06-22T14:18:09;7.03;;;2.83;;
69323;SDS011;56470;47.350;8.718;2023-06-22T14:20:34;6.23;;;2.40;;
69323;SDS011;56470;47.350;8.718;2023-06-22T14:23:00;7.10;;;2.50;;
69323;SDS011;56470;47.350;8.718;2023-06-22T14:25:25;9.50;;;2.57;;
69323;SDS011;56470;47.350;8.718;2023-06-22T14:27:50;9.48;;;2.15;;
69323;SDS011;56470;47.350;8.718;2023-06-22T14:30:15;7.40;;;3.13;;
69323;SDS011;56470;47.350;8.718;2023-06-22T14:32:43;5.57;;;2.10;;
69323;SDS011;56470;47.350;8.718;2023-06-22T14:35:08;6.45;;;2.08;;
69323;SDS011;56470;47.350;8.718;2023-06-22T14:37:34;6.73;;;2.20;;
69323;SDS011;56470;47.350;8.718;2023-06-22T14:39:59;9.10;;;2.90;;
69323;SDS011;56470;47.350;8.718;2023-06-22T14:42:24;6.87;;;2.47;;
69323;SDS011;56470;47.350;8.718;2023-06-22T14:44:51;10.10;;;2.88;;
69323;SDS011;56470;47.350;8.718;2023-06-22T14:47:17;7.27;;;2.70;;
69323;SDS011;56470;47.350;8.718;2023-06-22T14:49:43;6.07;;;2.42;;
69323;SDS011;56470;47.350;8.718;2023-06-22T14:52:08;7.33;;;2.00;;
69323;SDS011;56470;47.350;8.718;2023-06-22T14:54:34;10.40;;;3.37;;
69323;SDS011;56470;47.350;8.718;2023-06-22T14:56:59;8.00;;;3.00;;
69323;SDS011;56470;47.350;8.718;2023-06-22T14:59:24;9.17;;;2.90;;
69323;SDS011;56470;47.350;8.718;2023-06-22T15:01:49;9.30;;;2.53;;
69323;SDS011;56470;47.350;8.718;2023-06-22T15:04:15;10.90;;;2.83;;
69323;SDS011;56470;47.350;8.718;2023-06-22T15:06:40;6.57;;;3.20;;
69323;SDS011;56470;47.350;8.718;2023-06-22T15:09:05;9.60;;;2.73;;
69323;SDS011;56470;47.350;8.718;2023-06-22T15:11:31;7.77;;;2.90;;
69323;SDS011;56470;47.350;8.718;2023-06-22T15:13:58;10.52;;;2.60;;
69323;SDS011;56470;47.350;8.718;2023-06-22T15:16:25;7.73;;;2.70;;
69323;SDS011;56470;47.350;8.718;2023-06-22T15:18:50;7.65;;;2.50;;
69323;SDS011;56470;47.350;8.718;2023-06-22T15:21:15;8.27;;;2.90;;
69323;SDS011;56470;47.350;8.718;2023-06-22T15:23:41;6.85;;;3.33;;
69323;SDS011;56470;47.350;8.718;2023-06-22T15:26:07;10.70;;;4.20;;
69323;SDS011;56470;47.350;8.718;2023-06-22T15:28:32;8.60;;;3.57;;
69323;SDS011;56470;47.350;8.718;2023-06-22T15:30:59;8.93;;;4.10;;
69323;SDS011;56470;47.350;8.718;2023-06-22T15:33:25;9.47;;;3.20;;
69323;SDS011;56470;47.350;8.718;2023-06-22T15:35:50;9.57;;;3.50;;
69323;SDS011;56470;47.350;8.718;2023-06-22T15:38:17;7.03;;;3.28;;
69323;SDS011;56470;47.350;8.718;2023-06-22T15:40:43;6.77;;;3.67;;
69323;SDS011;56470;47.350;8.718;2023-06-22T15:43:11;9.18;;;3.45;;
69323;SDS011;56470;47.350;8.718;2023-06-22T15:45:40;8.97;;;3.33;;
69323;SDS011;56470;47.350;8.718;2023-06-22T15:48:05;10.25;;;3.60;;
69323;SDS011;56470;47.350;8.718;2023-06-22T15:50:31;8.67;;;3.17;;
69323;SDS011;56470;47.350;8.718;2023-06-22T15:52:56;10.10;;;3.30;;
69323;SDS011;56470;47.350;8.718;2023-06-22T15:55:21;6.57;;;2.83;;
69323;SDS011;56470;47.350;8.718;2023-06-22T15:57:47;8.13;;;3.07;;
69323;SDS011;56470;47.350;8.718;2023-06-22T16:00:15;8.82;;;3.30;;
69323;SDS011;56470;47.350;8.718;2023-06-22T16:02:42;13.67;;;6.63;;
69323;SDS011;56470;47.350;8.718;2023-06-22T16:05:09;9.15;;;4.20;;
69323;SDS011;56470;47.350;8.718;2023-06-22T16:07:34;10.23;;;4.13;;
69323;SDS011;56470;47.350;8.718;2023-06-22T16:10:00;9.27;;;3.87;;
69323;SDS011;56470;47.350;8.718;2023-06-22T16:12:25;8.90;;;3.30;;
69323;SDS011;56470;47.350;8.718;2023-06-22T16:14:54;11.73;;;3.45;;
69323;SDS011;56470;47.350;8.718;2023-06-22T16:17:19;10.27;;;3.43;;
69323;SDS011;56470;47.350;8.718;2023-06-22T16:19:44;7.30;;;2.87;;
69323;SDS011;56470;47.350;8.718;2023-06-22T16:22:09;11.83;;;4.60;;
69323;SDS011;56470;47.350;8.718;2023-06-22T16:24:35;9.57;;;3.10;;
69323;SDS011;56470;47.350;8.718;2023-06-22T16:27:00;10.27;;;3.50;;
69323;SDS011;56470;47.350;8.718;2023-06-22T16:29:25;8.50;;;2.83;;
69323;SDS011;56470;47.350;8.718;2023-06-22T16:31:51;7.97;;;3.80;;
69323;SDS011;56470;47.350;8.718;2023-06-22T16:34:16;9.40;;;2.63;;
69323;SDS011;56470;47.350;8.718;2023-06-22T16:36:41;10.30;;;3.37;;
69323;SDS011;56470;47.350;8.718;2023-06-22T16:39:06;8.47;;;3.33;;
69323;SDS011;56470;47.350;8.718;2023-06-22T16:41:32;9.73;;;2.97;;
69323;SDS011;56470;47.350;8.718;2023-06-22T16:43:57;10.30;;;2.90;;
69323;SDS011;56470;47.350;8.718;2023-06-22T16:46:27;7.83;;;3.37;;
69323;SDS011;56470;47.350;8.718;2023-06-22T16:48:52;9.45;;;3.20;;
69323;SDS011;56470;47.350;8.718;2023-06-22T16:51:18;6.37;;;2.97;;
69323;SDS011;56470;47.350;8.718;2023-06-22T16:53:43;8.97;;;2.70;;
69323;SDS011;56470;47.350;8.718;2023-06-22T16:56:09;5.82;;;2.72;;
69323;SDS011;56470;47.350;8.718;2023-06-22T16:58:35;9.70;;;2.67;;
69323;SDS011;56470;47.350;8.718;2023-06-22T17:01:03;7.15;;;2.72;;
69323;SDS011;56470;47.350;8.718;2023-06-22T17:03:33;11.90;;;2.80;;
69323;SDS011;56470;47.350;8.718;2023-06-22T17:06:04;8.98;;;3.42;;
69323;SDS011;56470;47.350;8.718;2023-06-22T17:08:31;9.93;;;3.00;;
69323;SDS011;56470;47.350;8.718;2023-06-22T17:10:58;7.72;;;2.95;;
69323;SDS011;56470;47.350;8.718;2023-06-22T17:13:23;6.50;;;3.27;;
69323;SDS011;56470;47.350;8.718;2023-06-22T17:15:48;7.13;;;2.77;;
69323;SDS011;56470;47.350;8.718;2023-06-22T17:18:21;8.23;;;2.60;;
69323;SDS011;56470;47.350;8.718;2023-06-22T17:20:49;10.00;;;3.03;;
69323;SDS011;56470;47.350;8.718;2023-06-22T17:23:14;9.93;;;3.20;;
69323;SDS011;56470;47.350;8.718;2023-06-22T17:25:39;11.00;;;3.43;;
69323;SDS011;56470;47.350;8.718;2023-06-22T17:28:07;7.50;;;3.00;;
69323;SDS011;56470;47.350;8.718;2023-06-22T17:30:32;11.63;;;3.47;;
69323;SDS011;56470;47.350;8.718;2023-06-22T17:32:58;10.33;;;3.53;;
69323;SDS011;56470;47.350;8.718;2023-06-22T17:35:25;10.00;;;3.53;;
69323;SDS011;56470;47.350;8.718;2023-06-22T17:37:51;7.43;;;3.40;;
69323;SDS011;56470;47.350;8.718;2023-06-22T17:40:23;12.00;;;3.38;;
69323;SDS011;56470;47.350;8.718;2023-06-22T17:42:51;14.52;;;4.28;;
69323;SDS011;56470;47.350;8.718;2023-06-22T17:45:17;9.30;;;3.03;;
69323;SDS011;56470;47.350;8.718;2023-06-22T17:47:48;8.95;;;3.45;;
69323;SDS011;56470;47.350;8.718;2023-06-22T17:50:15;8.25;;;2.67;;
69323;SDS011;56470;47.350;8.718;2023-06-22T17:52:41;6.85;;;2.85;;
69323;SDS011;56470;47.350;8.718;2023-06-22T17:55:07;9.63;;;2.90;;
69323;SDS011;56470;47.350;8.718;2023-06-22T17:57:36;9.38;;;2.58;;
69323;SDS011;56470;47.350;8.718;2023-06-22T18:00:05;6.87;;;2.63;;
69323;SDS011;56470;47.350;8.718;2023-06-22T18:02:41;6.53;;;2.45;;
69323;SDS011;56470;47.350;8.718;2023-06-22T18:05:10;7.88;;;2.55;;
69323;SDS011;56470;47.350;8.718;2023-06-22T18:07:46;6.07;;;2.40;;
69323;SDS011;56470;47.350;8.718;2023-06-22T18:10:19;6.43;;;2.13;;
69323;SDS011;56470;47.350;8.718;2023-06-22T18:12:55;6.17;;;2.10;;
69323;SDS011;56470;47.350;8.718;2023-06-22T18:15:22;8.35;;;2.45;;
69323;SDS011;56470;47.350;8.718;2023-06-22T18:17:49;4.13;;;1.70;;
69323;SDS011;56470;47.350;8.718;2023-06-22T18:20:15;6.72;;;1.83;;
69323;SDS011;56470;47.350;8.718;2023-06-22T18:22:40;4.07;;;1.43;;
69323;SDS011;56470;47.350;8.718;2023-06-22T18:25:06;4.25;;;1.30;;
69323;SDS011;56470;47.350;8.718;2023-06-22T18:27:32;2.77;;;1.73;;
69323;SDS011;56470;47.350;8.718;2023-06-22T18:30:00;3.38;;;1.30;;
69323;SDS011;56470;47.350;8.718;2023-06-22T18:32:27;3.40;;;1.42;;
69323;SDS011;56470;47.350;8.718;2023-06-22T18:34:52;2.20;;;1.20;;
69323;SDS011;56470;47.350;8.718;2023-06-22T18:37:18;3.38;;;1.88;;
69323;SDS011;56470;47.350;8.718;2023-06-22T18:39:45;3.80;;;1.27;;
69323;SDS011;56470;47.350;8.718;2023-06-22T18:42:14;7.87;;;2.00;;
69323;SDS011;56470;47.350;8.718;2023-06-22T18:44:41;3.05;;;1.40;;
69323;SDS011;56470;47.350;8.718;2023-06-22T18:47:07;3.63;;;1.60;;
69323;SDS011;56470;47.350;8.718;2023-06-22T18:49:44;5.90;;;1.67;;
69323;SDS011;56470;47.350;8.718;2023-06-22T18:52:13;3.22;;;1.80;;
69323;SDS011;56470;47.350;8.718;2023-06-22T18:54:41;3.50;;;1.63;;
69323;SDS011;56470;47.350;8.718;2023-06-22T18:57:14;4.53;;;1.52;;
69323;SDS011;56470;47.350;8.718;2023-06-22T19:02:10;3.33;;;1.50;;
69323;SDS011;56470;47.350;8.718;2023-06-22T19:04:41;4.47;;;1.75;;
69323;SDS011;56470;47.350;8.718;2023-06-22T19:07:08;3.47;;;1.47;;
69323;SDS011;56470;47.350;8.718;2023-06-22T19:09:34;3.97;;;1.30;;
69323;SDS011;56470;47.350;8.718;2023-06-22T19:15:01;3.67;;;1.97;;
69323;SDS011;56470;47.350;8.718;2023-06-22T19:17:32;3.53;;;2.03;;
69323;SDS011;56470;47.350;8.718;2023-06-22T19:20:00;5.43;;;2.00;;
69323;SDS011;56470;47.350;8.718;2023-06-22T19:23:22;2.67;;;1.52;;
69323;SDS011;56470;47.350;8.718;2023-06-22T19:25:27;3.03;;;1.85;;
69323;SDS011;56470;47.350;8.718;2023-06-22T19:27:55;3.10;;;1.35;;
69323;SDS011;56470;47.350;8.718;2023-06-22T19:30:22;3.08;;;1.83;;
69323;SDS011;56470;47.350;8.718;2023-06-22T19:44:18;3.55;;;1.42;;
69323;SDS011;56470;47.350;8.718;2023-06-22T19:50:19;4.03;;;1.27;;
69323;SDS011;56470;47.350;8.718;2023-06-22T19:53:09;3.20;;;1.27;;
69323;SDS011;56470;47.350;8.718;2023-06-22T19:58:26;3.08;;;1.40;;
69323;SDS011;56470;47.350;8.718;2023-06-22T20:00:55;3.40;;;1.40;;
69323;SDS011;56470;47.350;8.718;2023-06-22T20:03:42;4.20;;;1.45;;
69323;SDS011;56470;47.350;8.718;2023-06-22T20:06:11;2.75;;;1.27;;
69323;SDS011;56470;47.350;8.718;2023-06-22T20:08:48;3.28;;;1.30;;
69323;SDS011;56470;47.350;8.718;2023-06-22T20:11:15;2.47;;;1.33;;
69323;SDS011;56470;47.350;8.718;2023-06-22T20:13:49;3.03;;;1.50;;
69323;SDS011;56470;47.350;8.718;2023-06-22T20:16:16;3.13;;;1.40;;
69323;SDS011;56470;47.350;8.718;2023-06-22T20:18:43;3.63;;;1.83;;
69323;SDS011;56470;47.350;8.718;2023-06-22T20:21:12;3.15;;;1.58;;
69323;SDS011;56470;47.350;8.718;2023-06-22T20:23:39;3.77;;;1.70;;
69323;SDS011;56470;47.350;8.718;2023-06-22T20:26:09;3.00;;;1.60;;
69323;SDS011;56470;47.350;8.718;2023-06-22T20:28:44;4.15;;;1.33;;
69323;SDS011;56470;47.350;8.718;2023-06-22T20:31:15;3.10;;;1.77;;
69323;SDS011;56470;47.350;8.718;2023-06-22T20:34:03;3.08;;;1.48;;
69323;SDS011;56470;47.350;8.718;2023-06-22T20:36:31;4.00;;;1.30;;
69323;SDS011;56470;47.350;8.718;2023-06-22T20:38:57;3.92;;;1.92;;
69323;SDS011;56470;47.350;8.718;2023-06-22T20:41:22;4.40;;;1.40;;
69323;SDS011;56470;47.350;8.718;2023-06-22T20:43:54;3.25;;;1.58;;
69323;SDS011;56470;47.350;8.718;2023-06-22T20:46:19;3.90;;;1.50;;
69323;SDS011;56470;47.350;8.718;2023-06-22T20:48:44;3.80;;;1.52;;
69323;SDS011;56470;47.350;8.718;2023-06-22T20:51:10;3.23;;;1.63;;
69323;SDS011;56470;47.350;8.718;2023-06-22T20:53:36;2.33;;;1.10;;
69323;SDS011;56470;47.350;8.718;2023-06-22T20:56:01;2.67;;;1.63;;
69323;SDS011;56470;47.350;8.718;2023-06-22T20:58:27;3.17;;;1.50;;
69323;SDS011;56470;47.350;8.718;2023-06-22T21:00:54;3.80;;;1.80;;
69323;SDS011;56470;47.350;8.718;2023-06-22T21:03:25;2.67;;;1.15;;
69323;SDS011;56470;47.350;8.718;2023-06-22T21:05:50;2.23;;;1.40;;
69323;SDS011;56470;47.350;8.718;2023-06-22T21:08:16;2.63;;;1.37;;
69323;SDS011;56470;47.350;8.718;2023-06-22T21:10:41;3.45;;;1.67;;
69323;SDS011;56470;47.350;8.718;2023-06-22T21:13:06;2.60;;;1.40;;
69323;SDS011;56470;47.350;8.718;2023-06-22T21:15:32;3.53;;;1.70;;
69323;SDS011;56470;47.350;8.718;2023-06-22T21:17:58;5.07;;;1.70;;
69323;SDS011;56470;47.350;8.718;2023-06-22T21:20:23;4.50;;;1.50;;
69323;SDS011;56470;47.350;8.718;2023-06-22T21:22:48;2.93;;;1.80;;
69323;SDS011;56470;47.350;8.718;2023-06-22T21:25:14;2.80;;;1.10;;
69323;SDS011;56470;47.350;8.718;2023-06-22T21:27:43;3.92;;;1.70;;
69323;SDS011;56470;47.350;8.718;2023-06-22T21:30:11;2.88;;;1.27;;
69323;SDS011;56470;47.350;8.718;2023-06-22T21:32:39;3.03;;;1.48;;
69323;SDS011;56470;47.350;8.718;2023-06-22T21:35:05;3.55;;;1.73;;
69323;SDS011;56470;47.350;8.718;2023-06-22T21:37:31;2.80;;;1.70;;
69323;SDS011;56470;47.350;8.718;2023-06-22T21:39:56;3.17;;;1.77;;
69323;SDS011;56470;47.350;8.718;2023-06-22T21:42:22;2.70;;;1.10;;
69323;SDS011;56470;47.350;8.718;2023-06-22T21:44:51;2.50;;;1.40;;
69323;SDS011;56470;47.350;8.718;2023-06-22T21:47:17;2.73;;;1.10;;
69323;SDS011;56470;47.350;8.718;2023-06-22T21:49:42;3.90;;;1.13;;
69323;SDS011;56470;47.350;8.718;2023-06-22T21:52:08;3.20;;;1.63;;
69323;SDS011;56470;47.350;8.718;2023-06-22T21:54:33;3.45;;;1.70;;
69323;SDS011;56470;47.350;8.718;2023-06-22T21:56:59;2.53;;;1.50;;
69323;SDS011;56470;47.350;8.718;2023-06-22T21:59:24;2.70;;;1.40;;
69323;SDS011;56470;47.350;8.718;2023-06-22T22:01:50;3.35;;;1.38;;
69323;SDS011;56470;47.350;8.718;2023-06-22T22:04:15;2.27;;;1.23;;
69323;SDS011;56470;47.350;8.718;2023-06-22T22:06:41;3.65;;;1.65;;
69323;SDS011;56470;47.350;8.718;2023-06-22T22:09:07;2.35;;;1.02;;
69323;SDS011;56470;47.350;8.718;2023-06-22T22:11:32;3.50;;;1.67;;
69323;SDS011;56470;47.350;8.718;2023-06-22T22:13:58;3.33;;;1.83;;
69323;SDS011;56470;47.350;8.718;2023-06-22T22:16:23;3.10;;;1.60;;
69323;SDS011;56470;47.350;8.718;2023-06-22T22:18:48;2.97;;;1.30;;